createdAt,value
2018-11-02T00:00:43.975Z,5.94
2018-11-02T00:03:13.718Z,5.92
2018-11-02T00:05:43.337Z,6.09
2018-11-02T00:08:13.016Z,6.21
2018-11-02T00:10:42.631Z,6.47
2018-11-02T00:13:12.335Z,6.65
2018-11-02T00:15:41.923Z,6.61
2018-11-02T00:18:11.518Z,6.58
2018-11-02T00:20:41.119Z,6.61
2018-11-02T00:23:10.722Z,6.61
2018-11-02T00:25:40.323Z,6.73
2018-11-02T00:28:09.976Z,6.78
2018-11-02T00:30:39.572Z,6.77
2018-11-02T00:33:09.269Z,6.93
2018-11-02T00:35:38.850Z,6.93
2018-11-02T00:38:08.508Z,7.13
2018-11-02T00:40:38.133Z,7.04
2018-11-02T00:43:07.921Z,7.08
2018-11-02T00:45:37.633Z,7.24
2018-11-02T00:48:07.416Z,7.18
2018-11-02T00:50:37.053Z,7.27
2018-11-02T00:53:07.571Z,7.25
2018-11-02T00:55:37.215Z,7.17
2018-11-02T00:58:07.188Z,7.09
2018-11-02T01:00:36.825Z,7.10
2018-11-02T01:03:06.943Z,7.18
2018-11-02T01:05:36.590Z,7.04
2018-11-02T01:08:06.430Z,7.18
2018-11-02T01:10:36.121Z,7.11
2018-11-02T01:13:05.857Z,6.95
2018-11-02T01:15:35.491Z,6.91
2018-11-02T01:18:05.807Z,6.95
2018-11-02T01:20:35.454Z,7.08
2018-11-02T01:23:06.160Z,7.25
2018-11-02T01:25:35.812Z,7.15
2018-11-02T01:28:05.557Z,7.23
2018-11-02T01:30:35.194Z,7.06
2018-11-02T01:33:05.175Z,7.08
2018-11-02T01:35:34.785Z,7.11
2018-11-02T01:38:04.589Z,7.14
2018-11-02T01:40:34.205Z,7.07
2018-11-02T01:43:03.969Z,7.15
2018-11-02T01:45:33.575Z,7.12
2018-11-02T01:48:03.215Z,7.15
2018-11-02T01:50:32.808Z,7.06
2018-11-02T01:53:02.448Z,7.10
2018-11-02T01:55:32.045Z,7.02
2018-11-02T01:58:01.739Z,6.95
2018-11-02T02:00:31.315Z,6.97
2018-11-02T02:03:00.972Z,7.04
2018-11-02T02:05:30.597Z,6.93
2018-11-02T02:08:00.293Z,6.79
2018-11-02T02:10:29.942Z,6.79
2018-11-02T02:12:59.647Z,6.79
2018-11-02T02:15:29.239Z,6.72
2018-11-02T02:17:58.931Z,6.83
2018-11-02T02:20:28.562Z,6.97
2018-11-02T02:22:58.232Z,6.87
2018-11-02T02:25:27.837Z,6.88
2018-11-02T02:27:57.527Z,7.01
2018-11-02T02:30:27.168Z,7.09
2018-11-02T02:32:56.764Z,7.12
2018-11-02T02:35:26.345Z,7.18
2018-11-02T02:37:55.968Z,7.07
2018-11-02T02:40:25.563Z,7.24
2018-11-02T02:42:55.193Z,7.15
2018-11-02T02:45:24.752Z,7.28
2018-11-02T02:47:54.445Z,7.16
2018-11-02T02:50:24.053Z,7.03
2018-11-02T02:52:53.729Z,6.86
2018-11-02T02:55:23.357Z,6.89
2018-11-02T02:57:53.196Z,6.99
2018-11-02T03:00:22.805Z,6.89
2018-11-02T03:02:52.471Z,6.87
2018-11-02T03:05:22.129Z,6.76
2018-11-02T03:07:51.730Z,6.69
2018-11-02T03:10:21.435Z,6.83
2018-11-02T03:12:51.012Z,6.85
2018-11-02T03:15:20.616Z,6.81
2018-11-02T03:17:50.210Z,6.92
2018-11-02T03:20:19.798Z,6.90
2018-11-02T03:22:49.510Z,7.05
2018-11-02T03:25:19.567Z,7.04
2018-11-02T03:27:49.201Z,6.96
2018-11-02T03:30:18.842Z,7.16
2018-11-02T03:32:48.630Z,7.03
2018-11-02T03:35:18.231Z,7.13
2018-11-02T03:37:47.871Z,7.08
2018-11-02T03:40:17.483Z,7.14
2018-11-02T03:42:47.221Z,7.18
2018-11-02T03:45:16.887Z,7.29
2018-11-02T03:47:46.558Z,7.23
2018-11-02T03:50:16.235Z,7.05
2018-11-02T03:52:45.947Z,7.14
2018-11-02T03:55:15.560Z,7.12
2018-11-02T03:57:45.273Z,7.22
2018-11-02T04:00:14.934Z,7.23
2018-11-02T04:02:44.578Z,7.21
2018-11-02T04:05:14.225Z,7.13
2018-11-02T04:07:43.956Z,7.02
2018-11-02T04:10:13.596Z,6.96
2018-11-02T04:12:43.383Z,6.99
2018-11-02T04:15:13.010Z,7.05
2018-11-02T04:17:42.747Z,6.99
2018-11-02T04:20:12.379Z,6.84
2018-11-02T04:22:42.064Z,6.67
2018-11-02T04:25:11.731Z,6.58
2018-11-02T04:27:41.478Z,6.40
2018-11-02T04:30:11.141Z,6.26
2018-11-02T04:32:40.793Z,6.03
2018-11-02T04:35:10.572Z,5.81
2018-11-02T04:37:40.320Z,5.59
2018-11-02T04:40:09.966Z,5.81
2018-11-02T04:42:39.622Z,6.25
2018-11-02T04:45:09.281Z,6.46
2018-11-02T04:47:38.979Z,6.44
2018-11-02T04:50:09.547Z,6.55
2018-11-02T04:52:39.313Z,6.52
2018-11-02T04:55:08.956Z,6.47
2018-11-02T04:57:38.729Z,6.59
2018-11-02T05:00:10.238Z,6.72
2018-11-02T05:02:40.344Z,6.68
2018-11-02T05:05:09.984Z,6.61
2018-11-02T05:07:39.713Z,6.68
2018-11-02T05:10:10.108Z,6.57
2018-11-02T05:12:39.808Z,6.62
2018-11-02T05:15:09.483Z,6.56
2018-11-02T05:17:39.148Z,6.50
2018-11-02T05:20:10.162Z,6.49
2018-11-02T05:22:39.933Z,6.55
2018-11-02T05:25:10.524Z,6.43
2018-11-02T05:27:40.308Z,6.26
2018-11-02T05:30:10.920Z,6.16
2018-11-02T05:32:40.957Z,6.34
2018-11-02T05:35:10.749Z,6.33
2018-11-02T05:37:40.379Z,6.21
2018-11-02T05:40:10.491Z,6.40
2018-11-02T05:42:40.187Z,6.31
2018-11-02T05:45:09.893Z,6.33
2018-11-02T05:47:39.534Z,6.40
2018-11-02T05:50:09.406Z,6.48
2018-11-02T05:52:39.019Z,6.50
2018-11-02T05:55:09.781Z,6.42
2018-11-02T05:57:39.424Z,6.30
2018-11-02T06:00:09.946Z,6.33
2018-11-02T06:02:39.630Z,6.12
2018-11-02T06:05:09.414Z,6.07
2018-11-02T06:07:39.395Z,6.05
2018-11-02T06:10:09.268Z,6.18
2018-11-02T06:12:38.985Z,6.25
2018-11-02T06:15:08.672Z,6.27
2018-11-02T06:17:38.485Z,6.17
2018-11-02T06:20:09.334Z,6.11
2018-11-02T06:22:39.849Z,6.12
2018-11-02T06:25:09.529Z,6.13
2018-11-02T06:27:39.209Z,6.14
2018-11-02T06:30:10.114Z,6.10
2018-11-02T06:32:39.965Z,6.09
2018-11-02T06:35:10.144Z,6.07
2018-11-02T06:37:39.915Z,6.02
2018-11-02T06:40:09.857Z,6.03
2018-11-02T06:42:39.793Z,6.03
2018-11-02T06:45:10.884Z,6.05
2018-11-02T06:47:40.737Z,6.14
2018-11-02T06:50:10.384Z,6.13
2018-11-02T06:52:40.063Z,6.16
2018-11-02T06:55:10.325Z,6.16
2018-11-02T06:57:40.014Z,6.17
2018-11-02T07:00:12.992Z,6.15
2018-11-02T07:02:42.808Z,6.21
2018-11-02T07:05:12.406Z,6.11
2018-11-02T07:07:42.215Z,5.86
2018-11-02T07:10:11.741Z,5.90
2018-11-02T07:12:41.335Z,6.19
2018-11-02T07:15:10.975Z,6.32
2018-11-02T07:17:40.633Z,6.55
2018-11-02T07:20:10.280Z,6.73
2018-11-02T07:22:39.952Z,6.81
2018-11-02T07:25:09.723Z,6.88
2018-11-02T07:27:39.287Z,6.98
2018-11-02T07:30:10.952Z,7.03
2018-11-02T07:32:40.952Z,7.13
2018-11-02T07:35:11.256Z,7.28
2018-11-02T07:37:41.009Z,7.40
2018-11-02T07:40:11.830Z,7.53
2018-11-02T07:42:41.718Z,7.61
2018-11-02T07:45:11.399Z,7.47
2018-11-02T07:47:41.244Z,7.22
2018-11-02T07:50:12.126Z,7.34
2018-11-02T07:52:42.090Z,7.23
2018-11-02T07:55:13.367Z,7.26
2018-11-02T07:57:43.096Z,7.37
2018-11-02T08:00:14.285Z,7.43
2018-11-02T08:02:45.333Z,7.35
2018-11-02T08:05:15.747Z,6.93
2018-11-02T08:07:45.374Z,6.71
2018-11-02T08:10:14.984Z,6.60
2018-11-02T08:12:44.700Z,6.73
2018-11-02T08:15:14.315Z,7.03
2018-11-02T08:17:44.013Z,7.18
2018-11-02T08:20:14.111Z,7.24
2018-11-02T08:22:44.235Z,7.15
2018-11-02T08:25:13.955Z,7.20
2018-11-02T08:27:43.664Z,7.11
2018-11-02T08:30:13.515Z,7.25
2018-11-02T08:32:43.158Z,7.43
2018-11-02T08:35:13.806Z,7.68
2018-11-02T08:37:43.614Z,7.73
2018-11-02T08:40:14.052Z,7.69
2018-11-02T08:42:44.155Z,7.72
2018-11-02T08:45:13.781Z,7.68
2018-11-02T08:47:43.503Z,8.00
2018-11-02T08:50:13.685Z,8.25
2018-11-02T08:52:43.605Z,8.22
2018-11-02T08:55:13.273Z,8.34
2018-11-02T08:57:43.034Z,8.19
2018-11-02T09:00:13.927Z,8.40
2018-11-02T09:02:43.650Z,8.53
2018-11-02T09:05:13.549Z,8.71
2018-11-02T09:07:43.241Z,8.83
2018-11-02T09:10:13.221Z,8.89
2018-11-02T09:12:42.854Z,9.07
2018-11-02T09:15:12.527Z,9.18
2018-11-02T09:17:42.275Z,9.35
2018-11-02T09:20:11.985Z,9.54
2018-11-02T09:22:41.761Z,9.71
2018-11-02T09:25:11.461Z,9.66
2018-11-02T09:27:41.108Z,9.90
2018-11-02T09:30:14.844Z,9.77
2018-11-02T09:32:45.124Z,10.06
2018-11-02T09:35:15.337Z,10.60
2018-11-02T09:37:45.141Z,10.89
2018-11-02T09:40:14.926Z,10.44
2018-11-02T09:42:44.693Z,10.55
2018-11-02T09:45:15.100Z,10.53
2018-11-02T09:47:45.115Z,10.68
2018-11-02T09:50:14.891Z,10.62
2018-11-02T09:52:44.552Z,10.10
2018-11-02T09:55:15.699Z,10.33
2018-11-02T09:57:46.193Z,10.20
2018-11-02T10:00:16.233Z,10.51
2018-11-02T10:02:45.892Z,10.51
2018-11-02T10:05:15.605Z,11.04
2018-11-02T10:07:45.262Z,11.03
2018-11-02T10:10:15.022Z,10.65
2018-11-02T10:12:44.759Z,10.67
2018-11-02T10:15:15.600Z,10.50
2018-11-02T10:17:45.616Z,10.82
2018-11-02T10:20:15.287Z,10.83
2018-11-02T10:22:44.978Z,10.78
2018-11-02T10:25:14.645Z,10.81
2018-11-02T10:27:45.004Z,10.53
2018-11-02T10:30:15.393Z,10.55
2018-11-02T10:32:49.165Z,10.98
2018-11-02T10:35:18.927Z,11.53
2018-11-02T10:37:49.155Z,11.31
2018-11-02T10:40:19.551Z,13.00
2018-11-02T10:43:12.656Z,14.58
2018-11-02T10:45:45.117Z,15.32
2018-11-02T10:48:14.807Z,15.08
2018-11-02T10:50:44.557Z,14.86
2018-11-02T10:53:14.188Z,15.19
2018-11-02T10:55:43.888Z,13.90
2018-11-02T10:58:13.546Z,14.24
2018-11-02T11:00:48.540Z,14.82
2018-11-02T11:03:18.097Z,15.14
2018-11-02T11:05:47.946Z,15.54
2018-11-02T11:08:17.595Z,15.55
2018-11-02T11:10:47.409Z,12.57
2018-11-02T11:13:17.369Z,13.02
2018-11-02T11:15:46.790Z,14.97
2018-11-02T11:18:16.484Z,14.64
2018-11-02T11:20:46.139Z,15.19
2018-11-02T11:23:15.906Z,15.40
2018-11-02T11:25:45.516Z,16.93
2018-11-02T11:28:15.607Z,16.53
2018-11-02T11:30:45.324Z,18.19
2018-11-02T11:33:15.159Z,15.63
2018-11-02T11:35:44.788Z,15.54
2018-11-02T11:38:14.576Z,17.84
2018-11-02T11:40:44.225Z,18.22
2018-11-02T11:43:14.026Z,17.14
2018-11-02T11:45:43.682Z,17.17
2018-11-02T11:48:13.405Z,17.36
2018-11-02T11:50:43.103Z,17.48
2018-11-02T11:53:12.873Z,16.34
2018-11-02T11:55:42.553Z,14.99
2018-11-02T11:58:12.371Z,16.76
2018-11-02T12:00:42.050Z,17.02
2018-11-02T12:03:11.779Z,16.75
2018-11-02T12:05:41.472Z,16.91
2018-11-02T12:08:11.391Z,17.31
2018-11-02T12:10:41.069Z,17.55
2018-11-02T12:13:10.830Z,17.82
2018-11-02T12:15:40.543Z,17.84
2018-11-02T12:18:11.296Z,16.70
2018-11-02T12:20:41.008Z,16.74
2018-11-02T12:23:10.789Z,18.15
2018-11-02T12:25:40.473Z,20.02
2018-11-02T12:28:10.296Z,20.83
2018-11-02T12:30:39.979Z,18.28
2018-11-02T12:33:09.664Z,19.22
2018-11-02T12:35:39.297Z,17.94
2018-11-02T12:38:09.264Z,16.32
2018-11-02T12:40:38.994Z,17.28
2018-11-02T12:43:08.783Z,19.06
2018-11-02T12:45:38.383Z,18.66
2018-11-02T12:48:08.095Z,18.79
2018-11-02T12:50:37.795Z,17.66
2018-11-02T12:53:07.554Z,15.83
2018-11-02T12:55:37.183Z,19.15
2018-11-02T12:58:07.112Z,17.98
2018-11-02T13:00:36.792Z,19.99
2018-11-02T13:03:06.788Z,18.84
2018-11-02T13:05:36.382Z,19.45
2018-11-02T13:08:06.035Z,18.82
2018-11-02T13:10:35.684Z,19.10
2018-11-02T13:13:05.554Z,18.22
2018-11-02T13:15:35.173Z,19.21
2018-11-02T13:18:05.051Z,17.47
2018-11-02T13:20:34.645Z,17.83
2018-11-02T13:23:04.321Z,18.60
2018-11-02T13:25:33.984Z,18.57
2018-11-02T13:28:03.609Z,15.79
2018-11-02T13:30:33.360Z,15.16
2018-11-02T13:33:02.818Z,16.03
2018-11-02T13:35:32.423Z,15.45
2018-11-02T13:38:02.128Z,14.92
2018-11-02T13:40:31.745Z,15.27
2018-11-02T13:43:01.519Z,16.85
2018-11-02T13:45:31.046Z,15.27
2018-11-02T13:48:00.745Z,15.01
2018-11-02T13:50:30.488Z,14.91
2018-11-02T13:53:00.059Z,15.54
2018-11-02T13:55:29.681Z,17.77
2018-11-02T13:57:59.423Z,16.96
2018-11-02T14:00:29.021Z,17.82
2018-11-02T14:02:58.690Z,18.55
2018-11-02T14:05:28.270Z,19.34
2018-11-02T14:07:57.912Z,17.16
2018-11-02T14:10:27.535Z,18.37
2018-11-02T14:12:57.238Z,15.53
2018-11-02T14:15:26.850Z,15.05
2018-11-02T14:17:56.547Z,14.28
2018-11-02T14:20:26.217Z,13.80
2018-11-02T14:22:55.864Z,13.80
2018-11-02T14:25:25.481Z,14.24
2018-11-02T14:27:55.209Z,14.02
2018-11-02T14:30:24.819Z,14.19
2018-11-02T14:32:54.512Z,14.33
2018-11-02T14:35:24.085Z,16.33
2018-11-02T14:37:53.738Z,17.12
2018-11-02T14:40:23.366Z,16.82
2018-11-02T14:42:53.021Z,17.23
2018-11-02T14:45:22.671Z,15.71
2018-11-02T14:47:52.361Z,16.10
2018-11-02T14:50:22.021Z,17.27
2018-11-02T14:52:51.702Z,16.09
2018-11-02T14:55:21.349Z,14.16
2018-11-02T14:57:51.023Z,13.40
2018-11-02T15:00:20.708Z,12.87
2018-11-02T15:02:50.348Z,12.80
2018-11-02T15:05:20.053Z,12.48
2018-11-02T15:07:49.703Z,12.30
2018-11-02T15:10:19.363Z,12.29
2018-11-02T15:12:49.035Z,12.22
2018-11-02T15:15:19.628Z,12.14
2018-11-02T15:17:49.344Z,12.13
2018-11-02T15:20:19.029Z,11.98
2018-11-02T15:22:48.686Z,11.85
2018-11-02T15:25:18.458Z,11.82
2018-11-02T15:27:48.136Z,11.83
2018-11-02T15:30:17.908Z,11.62
2018-11-02T15:32:47.561Z,11.45
2018-11-02T15:35:17.322Z,11.32
2018-11-02T15:37:46.990Z,11.19
2018-11-02T15:40:16.708Z,11.09
2018-11-02T15:42:46.363Z,11.03
2018-11-02T15:45:16.385Z,11.00
2018-11-02T15:47:46.206Z,10.98
2018-11-02T15:50:15.955Z,10.91
2018-11-02T15:52:45.608Z,10.87
2018-11-02T15:55:15.240Z,10.80
2018-11-02T15:57:44.905Z,10.71
2018-11-02T16:00:17.606Z,10.56
2018-11-02T16:02:48.759Z,10.59
2018-11-02T16:05:18.675Z,10.50
2018-11-02T16:07:48.343Z,10.50
2018-11-02T16:10:18.080Z,10.53
2018-11-02T16:12:47.752Z,10.50
2018-11-02T16:15:17.460Z,10.40
2018-11-02T16:17:47.103Z,10.31
2018-11-02T16:20:16.929Z,10.19
2018-11-02T16:22:46.743Z,10.15
2018-11-02T16:25:16.501Z,10.09
2018-11-02T16:27:46.161Z,10.01
2018-11-02T16:30:15.817Z,10.07
2018-11-02T16:32:45.449Z,10.08
2018-11-02T16:35:15.113Z,10.09
2018-11-02T16:37:44.779Z,10.03
2018-11-02T16:40:15.724Z,10.04
2018-11-02T16:42:46.166Z,10.03
2018-11-02T16:45:16.040Z,9.96
2018-11-02T16:47:45.827Z,9.69
2018-11-02T16:50:16.145Z,9.53
2018-11-02T16:52:45.884Z,9.51
2018-11-02T16:55:15.530Z,9.57
2018-11-02T16:57:45.449Z,9.57
2018-11-02T17:00:17.604Z,9.51
2018-11-02T17:02:48.340Z,9.45
2018-11-02T17:05:18.450Z,9.44
2018-11-02T17:07:48.270Z,9.52
2018-11-02T17:10:17.911Z,9.51
2018-11-02T17:12:47.587Z,9.51
2018-11-02T17:15:17.262Z,9.47
2018-11-02T17:17:46.908Z,9.41
2018-11-02T17:20:17.845Z,9.44
2018-11-02T17:22:47.854Z,9.46
2018-11-02T17:25:17.499Z,9.36
2018-11-02T17:27:47.245Z,9.33
2018-11-02T17:30:18.112Z,9.30
2018-11-02T17:32:47.889Z,9.46
2018-11-02T17:35:17.505Z,9.51
2018-11-02T17:37:47.154Z,9.29
2018-11-02T17:40:16.959Z,9.26
2018-11-02T17:42:46.730Z,9.27
2018-11-02T17:45:16.359Z,9.26
2018-11-02T17:47:46.174Z,9.31
2018-11-02T17:50:16.109Z,9.20
2018-11-02T17:52:45.836Z,9.29
2018-11-02T17:55:15.495Z,9.41
2018-11-02T17:57:45.144Z,9.40
2018-11-02T18:00:15.256Z,9.34
2018-11-02T18:02:44.893Z,9.38
2018-11-02T18:05:14.632Z,9.47
2018-11-02T18:07:44.299Z,9.44
2018-11-02T18:10:14.386Z,9.40
2018-11-02T18:12:44.028Z,9.44
2018-11-02T18:15:14.217Z,9.47
2018-11-02T18:17:43.862Z,9.49
2018-11-02T18:20:15.541Z,9.56
2018-11-02T18:22:45.176Z,9.63
2018-11-02T18:25:14.860Z,9.64
2018-11-02T18:27:44.546Z,9.69
2018-11-02T18:30:14.253Z,9.57
2018-11-02T18:32:43.915Z,9.54
2018-11-02T18:35:13.893Z,9.51
2018-11-02T18:37:43.484Z,9.48
2018-11-02T18:40:14.082Z,9.45
2018-11-02T18:42:44.093Z,9.33
2018-11-02T18:45:15.025Z,9.35
2018-11-02T18:47:49.764Z,9.35
2018-11-02T18:50:20.848Z,9.40
2018-11-02T18:52:50.925Z,9.39
2018-11-02T18:55:21.025Z,9.45
2018-11-02T18:57:50.703Z,9.43
2018-11-02T19:00:20.350Z,9.41
2018-11-02T19:02:50.055Z,9.34
2018-11-02T19:05:20.287Z,9.35
2018-11-02T19:07:49.957Z,9.34
2018-11-02T19:10:19.799Z,9.36
2018-11-02T19:12:49.474Z,9.34
2018-11-02T19:15:20.125Z,9.40
2018-11-02T19:17:49.810Z,9.35
2018-11-02T19:20:19.543Z,9.07
2018-11-02T19:22:49.205Z,9.04
2018-11-02T19:25:18.924Z,9.07
2018-11-02T19:27:48.668Z,9.05
2018-11-02T19:30:18.434Z,8.94
2018-11-02T19:32:48.248Z,8.84
2018-11-02T19:35:18.188Z,8.89
2018-11-02T19:37:47.707Z,8.92
2018-11-02T19:40:17.340Z,8.98
2018-11-02T19:42:47.079Z,8.96
2018-11-02T19:45:16.804Z,8.93
2018-11-02T19:47:55.098Z,8.85
2018-11-02T19:50:24.887Z,8.79
2018-11-02T19:52:54.593Z,8.77
2018-11-02T19:55:24.391Z,8.79
2018-11-02T19:57:54.091Z,8.74
2018-11-02T20:00:23.813Z,8.71
2018-11-02T20:02:53.592Z,8.77
2018-11-02T20:05:23.303Z,8.80
2018-11-02T20:07:53.024Z,8.74
2018-11-02T20:10:22.740Z,8.86
2018-11-02T20:12:52.429Z,8.86
2018-11-02T20:15:22.133Z,8.78
2018-11-02T20:17:51.836Z,8.82
2018-11-02T20:20:21.442Z,8.88
2018-11-02T20:22:51.177Z,8.90
2018-11-02T20:25:20.890Z,8.98
2018-11-02T20:27:50.512Z,8.98
2018-11-02T20:30:21.469Z,8.93
2018-11-02T20:32:51.110Z,8.87
2018-11-02T20:35:20.851Z,8.66
2018-11-02T20:37:50.471Z,8.57
2018-11-02T20:40:20.751Z,8.54
2018-11-02T20:42:50.373Z,8.60
2018-11-02T20:45:20.129Z,8.66
2018-11-02T20:47:53.836Z,8.72
2018-11-02T20:50:23.563Z,8.80
2018-11-02T20:52:53.696Z,8.78
2018-11-02T20:55:23.309Z,8.75
2018-11-02T20:57:52.978Z,8.77
2018-11-02T21:00:23.907Z,8.74
2018-11-02T21:02:53.899Z,8.77
2018-11-02T21:05:23.696Z,8.66
2018-11-02T21:07:53.737Z,8.64
2018-11-02T21:10:23.585Z,8.61
2018-11-02T21:12:53.384Z,8.59
2018-11-02T21:15:24.326Z,8.55
2018-11-02T21:17:54.344Z,8.48
2018-11-02T21:20:25.430Z,8.54
2018-11-02T21:22:55.107Z,8.50
2018-11-02T21:25:24.737Z,8.48
2018-11-02T21:27:54.409Z,8.46
2018-11-02T21:30:25.979Z,8.44
2018-11-02T21:32:56.294Z,8.41
2018-11-02T21:35:25.925Z,8.42
2018-11-02T21:37:55.617Z,8.39
2018-11-02T21:40:25.946Z,8.41
2018-11-02T21:42:55.594Z,8.37
2018-11-02T21:45:25.499Z,8.38
2018-11-02T21:47:55.471Z,8.36
2018-11-02T21:50:25.212Z,8.36
2018-11-02T21:52:54.993Z,8.34
2018-11-02T21:55:24.719Z,8.33
2018-11-02T21:57:54.474Z,8.33
2018-11-02T22:00:24.260Z,8.33
2018-11-02T22:02:54.117Z,8.36
2018-11-02T22:05:23.884Z,8.29
2018-11-02T22:07:53.693Z,8.30
2018-11-02T22:10:23.556Z,8.37
2018-11-02T22:12:53.219Z,8.35
2018-11-02T22:15:22.991Z,8.28
2018-11-02T22:17:52.685Z,8.27
2018-11-02T22:20:22.445Z,8.19
2018-11-02T22:22:52.118Z,8.13
2018-11-02T22:25:21.931Z,8.06
2018-11-02T22:27:51.676Z,8.03
2018-11-02T22:30:21.394Z,8.02
2018-11-02T22:32:51.198Z,8.01
2018-11-02T22:35:20.950Z,8.01
2018-11-02T22:37:50.642Z,7.98
2018-11-02T22:40:20.347Z,7.98
2018-11-02T22:42:49.985Z,7.99
2018-11-02T22:45:19.613Z,7.93
2018-11-02T22:47:54.518Z,7.93
2018-11-02T22:50:24.242Z,7.87
2018-11-02T22:52:54.068Z,7.91
2018-11-02T22:55:23.720Z,7.89
2018-11-02T22:57:53.421Z,7.90
2018-11-02T23:00:23.186Z,7.84
2018-11-02T23:02:52.959Z,7.83
2018-11-02T23:05:22.894Z,7.81
2018-11-02T23:07:52.676Z,7.80
2018-11-02T23:10:22.385Z,7.82
2018-11-02T23:12:52.137Z,7.75
2018-11-02T23:15:21.886Z,7.72
2018-11-02T23:17:51.630Z,7.74
2018-11-02T23:20:21.287Z,7.73
2018-11-02T23:22:51.040Z,7.74
2018-11-02T23:25:20.825Z,7.69
2018-11-02T23:27:50.558Z,7.70
2018-11-02T23:30:20.218Z,7.69
2018-11-02T23:32:50.158Z,7.67
2018-11-02T23:35:19.808Z,7.66
2018-11-02T23:37:49.480Z,7.66
2018-11-02T23:40:19.145Z,7.65
2018-11-02T23:42:48.894Z,7.60
2018-11-02T23:45:18.645Z,7.58
2018-11-02T23:47:53.520Z,7.59
2018-11-02T23:50:23.201Z,7.58
2018-11-02T23:52:52.929Z,7.66
2018-11-02T23:55:22.557Z,7.60
2018-11-02T23:57:52.273Z,7.54
